sensor_id;sensor_type;location;lat;lon;timestamp;pressure;altitude;pressure_sealevel;temperature;humidity
57847;BME280;43675;50.030;21.952;2023-05-09T00:01:19;99878.30;;;2.58;77.26
57847;BME280;43675;50.030;21.952;2023-05-09T00:03:46;99878.67;;;2.56;77.30
57847;BME280;43675;50.030;21.952;2023-05-09T00:06:12;99870.91;;;2.52;77.16
57847;BME280;43675;50.030;21.952;2023-05-09T00:08:39;99871.70;;;2.49;77.42
57847;BME280;43675;50.030;21.952;2023-05-09T00:11:06;99868.81;;;2.44;77.09
57847;BME280;43675;50.030;21.952;2023-05-09T00:13:32;99867.62;;;2.39;77.22
57847;BME280;43675;50.030;21.952;2023-05-09T00:15:59;99869.27;;;2.34;77.30
57847;BME280;43675;50.030;21.952;2023-05-09T00:18:26;99866.16;;;2.32;77.40
57847;BME280;43675;50.030;21.952;2023-05-09T00:20:52;99866.23;;;2.33;77.68
57847;BME280;43675;50.030;21.952;2023-05-09T00:23:19;99863.75;;;2.33;77.66
57847;BME280;43675;50.030;21.952;2023-05-09T00:25:45;99861.19;;;2.32;77.75
57847;BME280;43675;50.030;21.952;2023-05-09T00:28:12;99861.11;;;2.31;77.84
57847;BME280;43675;50.030;21.952;2023-05-09T00:30:38;99857.73;;;2.29;78.02
57847;BME280;43675;50.030;21.952;2023-05-09T00:33:05;99856.40;;;2.27;78.05
57847;BME280;43675;50.030;21.952;2023-05-09T00:35:31;99857.21;;;2.23;78.38
57847;BME280;43675;50.030;21.952;2023-05-09T00:37:58;99856.95;;;2.20;78.24
57847;BME280;43675;50.030;21.952;2023-05-09T00:40:24;99858.61;;;2.17;78.51
57847;BME280;43675;50.030;21.952;2023-05-09T00:42:51;99861.36;;;2.14;78.34
57847;BME280;43675;50.030;21.952;2023-05-09T00:45:18;99861.10;;;2.13;78.72
57847;BME280;43675;50.030;21.952;2023-05-09T00:47:44;99859.83;;;2.11;78.68
57847;BME280;43675;50.030;21.952;2023-05-09T00:50:11;99859.71;;;2.09;78.81
57847;BME280;43675;50.030;21.952;2023-05-09T00:52:37;99857.69;;;2.06;78.78
57847;BME280;43675;50.030;21.952;2023-05-09T00:55:05;99858.84;;;2.03;78.86
57847;BME280;43675;50.030;21.952;2023-05-09T00:57:31;99851.67;;;2.00;79.04
57847;BME280;43675;50.030;21.952;2023-05-09T00:59:59;99850.65;;;1.97;78.94
57847;BME280;43675;50.030;21.952;2023-05-09T01:02:26;99850.84;;;1.95;79.07
57847;BME280;43675;50.030;21.952;2023-05-09T01:04:53;99845.98;;;1.94;79.26
57847;BME280;43675;50.030;21.952;2023-05-09T01:10:19;99848.21;;;1.89;79.07
57847;BME280;43675;50.030;21.952;2023-05-09T01:12:56;99852.30;;;1.88;79.24
57847;BME280;43675;50.030;21.952;2023-05-09T01:18:17;99849.52;;;1.85;79.24
57847;BME280;43675;50.030;21.952;2023-05-09T01:31:55;99856.67;;;1.78;79.54
57847;BME280;43675;50.030;21.952;2023-05-09T01:34:25;99853.98;;;1.77;79.84
57847;BME280;43675;50.030;21.952;2023-05-09T01:36:55;99853.51;;;1.74;79.76
57847;BME280;43675;50.030;21.952;2023-05-09T01:39:24;99856.09;;;1.75;79.91
57847;BME280;43675;50.030;21.952;2023-05-09T01:41:54;99852.60;;;1.72;79.95
57847;BME280;43675;50.030;21.952;2023-05-09T01:44:22;99849.00;;;1.67;79.83
57847;BME280;43675;50.030;21.952;2023-05-09T01:46:53;99847.84;;;1.64;79.81
57847;BME280;43675;50.030;21.952;2023-05-09T01:49:21;99848.73;;;1.62;79.78
57847;BME280;43675;50.030;21.952;2023-05-09T01:51:49;99846.50;;;1.59;79.83
57847;BME280;43675;50.030;21.952;2023-05-09T01:54:16;99847.52;;;1.56;79.89
57847;BME280;43675;50.030;21.952;2023-05-09T01:56:44;99847.46;;;1.52;79.82
57847;BME280;43675;50.030;21.952;2023-05-09T01:59:13;99846.80;;;1.52;79.87
57847;BME280;43675;50.030;21.952;2023-05-09T02:01:42;99847.33;;;1.56;79.68
57847;BME280;43675;50.030;21.952;2023-05-09T02:04:09;99846.59;;;1.54;79.79
57847;BME280;43675;50.030;21.952;2023-05-09T02:06:36;99840.73;;;1.55;79.89
57847;BME280;43675;50.030;21.952;2023-05-09T02:09:03;99840.05;;;1.54;80.02
57847;BME280;43675;50.030;21.952;2023-05-09T02:11:30;99839.66;;;1.55;80.17
57847;BME280;43675;50.030;21.952;2023-05-09T02:13:56;99839.14;;;1.55;80.20
57847;BME280;43675;50.030;21.952;2023-05-09T02:16:23;99836.11;;;1.55;80.16
57847;BME280;43675;50.030;21.952;2023-05-09T02:18:49;99838.48;;;1.54;80.26
57847;BME280;43675;50.030;21.952;2023-05-09T02:21:16;99837.46;;;1.53;80.29
57847;BME280;43675;50.030;21.952;2023-05-09T02:23:43;99836.99;;;1.53;80.21
57847;BME280;43675;50.030;21.952;2023-05-09T02:26:10;99835.15;;;1.52;80.39
57847;BME280;43675;50.030;21.952;2023-05-09T02:28:37;99834.35;;;1.51;80.38
57847;BME280;43675;50.030;21.952;2023-05-09T02:31:05;99836.58;;;1.50;80.51
57847;BME280;43675;50.030;21.952;2023-05-09T02:33:35;99834.34;;;1.49;80.61
57847;BME280;43675;50.030;21.952;2023-05-09T02:36:04;99837.10;;;1.50;80.69
57847;BME280;43675;50.030;21.952;2023-05-09T02:38:31;99833.12;;;1.49;80.58
57847;BME280;43675;50.030;21.952;2023-05-09T02:40:58;99833.96;;;1.47;80.68
57847;BME280;43675;50.030;21.952;2023-05-09T02:43:24;99830.23;;;1.45;80.73
57847;BME280;43675;50.030;21.952;2023-05-09T02:45:51;99829.79;;;1.44;80.85
57847;BME280;43675;50.030;21.952;2023-05-09T02:48:17;99828.19;;;1.42;80.80
57847;BME280;43675;50.030;21.952;2023-05-09T02:50:44;99832.15;;;1.41;80.85
57847;BME280;43675;50.030;21.952;2023-05-09T02:53:10;99829.84;;;1.39;80.93
57847;BME280;43675;50.030;21.952;2023-05-09T02:55:37;99828.41;;;1.37;80.89
57847;BME280;43675;50.030;21.952;2023-05-09T02:58:03;99830.55;;;1.35;80.93
57847;BME280;43675;50.030;21.952;2023-05-09T03:00:30;99833.01;;;1.33;80.90
57847;BME280;43675;50.030;21.952;2023-05-09T03:02:56;99831.31;;;1.30;80.93
57847;BME280;43675;50.030;21.952;2023-05-09T03:05:23;99830.23;;;1.28;80.95
57847;BME280;43675;50.030;21.952;2023-05-09T03:07:49;99829.88;;;1.26;80.81
57847;BME280;43675;50.030;21.952;2023-05-09T03:10:16;99828.42;;;1.25;80.95
57847;BME280;43675;50.030;21.952;2023-05-09T03:12:43;99833.77;;;1.24;81.04
57847;BME280;43675;50.030;21.952;2023-05-09T03:15:09;99828.24;;;1.25;81.11
57847;BME280;43675;50.030;21.952;2023-05-09T03:17:36;99828.33;;;1.28;81.38
57847;BME280;43675;50.030;21.952;2023-05-09T03:20:03;99829.84;;;1.31;81.17
57847;BME280;43675;50.030;21.952;2023-05-09T03:22:30;99831.89;;;1.34;81.20
57847;BME280;43675;50.030;21.952;2023-05-09T03:24:56;99829.50;;;1.37;81.27
57847;BME280;43675;50.030;21.952;2023-05-09T03:27:23;99832.31;;;1.41;81.30
57847;BME280;43675;50.030;21.952;2023-05-09T03:29:49;99837.02;;;1.47;81.24
57847;BME280;43675;50.030;21.952;2023-05-09T03:32:16;99837.65;;;1.52;81.36
57847;BME280;43675;50.030;21.952;2023-05-09T03:34:42;99841.58;;;1.57;81.38
57847;BME280;43675;50.030;21.952;2023-05-09T03:37:09;99839.85;;;1.63;81.32
57847;BME280;43675;50.030;21.952;2023-05-09T03:39:36;99842.48;;;1.69;81.45
57847;BME280;43675;50.030;21.952;2023-05-09T03:42:02;99847.94;;;1.75;81.45
57847;BME280;43675;50.030;21.952;2023-05-09T03:44:29;99843.59;;;1.81;81.44
57847;BME280;43675;50.030;21.952;2023-05-09T03:46:55;99844.45;;;1.87;81.45
57847;BME280;43675;50.030;21.952;2023-05-09T03:49:22;99842.50;;;1.94;81.45
57847;BME280;43675;50.030;21.952;2023-05-09T03:51:48;99843.11;;;2.01;81.62
57847;BME280;43675;50.030;21.952;2023-05-09T03:54:15;99843.00;;;2.08;81.58
57847;BME280;43675;50.030;21.952;2023-05-09T03:56:41;99841.83;;;2.15;81.54
57847;BME280;43675;50.030;21.952;2023-05-09T03:59:08;99845.42;;;2.23;81.44
57847;BME280;43675;50.030;21.952;2023-05-09T04:01:34;99848.83;;;2.30;81.59
57847;BME280;43675;50.030;21.952;2023-05-09T04:04:01;99848.52;;;2.38;81.32
57847;BME280;43675;50.030;21.952;2023-05-09T04:06:27;99850.39;;;2.47;81.58
57847;BME280;43675;50.030;21.952;2023-05-09T04:08:54;99850.75;;;2.56;81.62
57847;BME280;43675;50.030;21.952;2023-05-09T04:11:20;99848.83;;;2.66;81.86
57847;BME280;43675;50.030;21.952;2023-05-09T04:13:48;99847.45;;;2.75;81.80
57847;BME280;43675;50.030;21.952;2023-05-09T04:16:14;99845.65;;;2.85;81.88
57847;BME280;43675;50.030;21.952;2023-05-09T04:18:41;99843.63;;;2.96;81.92
57847;BME280;43675;50.030;21.952;2023-05-09T04:21:08;99844.43;;;3.07;81.88
57847;BME280;43675;50.030;21.952;2023-05-09T04:23:34;99845.03;;;3.20;81.87
57847;BME280;43675;50.030;21.952;2023-05-09T04:26:01;99845.41;;;3.33;81.88
57847;BME280;43675;50.030;21.952;2023-05-09T04:28:27;99840.27;;;3.44;81.42
57847;BME280;43675;50.030;21.952;2023-05-09T04:30:54;99843.20;;;3.55;81.75
57847;BME280;43675;50.030;21.952;2023-05-09T04:33:20;99843.16;;;3.66;81.53
57847;BME280;43675;50.030;21.952;2023-05-09T04:35:47;99846.28;;;3.78;81.71
57847;BME280;43675;50.030;21.952;2023-05-09T04:38:13;99848.11;;;3.89;81.76
57847;BME280;43675;50.030;21.952;2023-05-09T04:40:40;99850.32;;;3.99;81.53
57847;BME280;43675;50.030;21.952;2023-05-09T04:43:06;99851.02;;;4.09;81.53
57847;BME280;43675;50.030;21.952;2023-05-09T04:45:33;99852.89;;;4.19;81.46
57847;BME280;43675;50.030;21.952;2023-05-09T04:47:59;99852.06;;;4.29;81.24
57847;BME280;43675;50.030;21.952;2023-05-09T04:50:26;99851.33;;;4.39;81.03
57847;BME280;43675;50.030;21.952;2023-05-09T04:52:52;99851.23;;;4.49;80.91
57847;BME280;43675;50.030;21.952;2023-05-09T04:55:19;99851.00;;;4.58;80.84
57847;BME280;43675;50.030;21.952;2023-05-09T04:57:45;99851.68;;;4.68;80.39
57847;BME280;43675;50.030;21.952;2023-05-09T05:00:12;99851.35;;;4.76;80.71
57847;BME280;43675;50.030;21.952;2023-05-09T05:02:39;99851.38;;;4.85;80.23
57847;BME280;43675;50.030;21.952;2023-05-09T05:05:06;99852.94;;;4.95;80.29
57847;BME280;43675;50.030;21.952;2023-05-09T05:07:33;99854.00;;;5.04;80.06
57847;BME280;43675;50.030;21.952;2023-05-09T05:09:59;99853.57;;;5.13;79.97
57847;BME280;43675;50.030;21.952;2023-05-09T05:12:26;99849.17;;;5.23;79.73
57847;BME280;43675;50.030;21.952;2023-05-09T05:14:52;99849.54;;;5.34;79.49
57847;BME280;43675;50.030;21.952;2023-05-09T05:17:19;99845.34;;;5.44;79.33
57847;BME280;43675;50.030;21.952;2023-05-09T05:19:45;99840.70;;;5.55;79.01
57847;BME280;43675;50.030;21.952;2023-05-09T05:22:11;99841.08;;;5.65;78.72
57847;BME280;43675;50.030;21.952;2023-05-09T05:24:38;99839.16;;;5.75;78.39
57847;BME280;43675;50.030;21.952;2023-05-09T05:27:04;99842.29;;;5.87;78.05
57847;BME280;43675;50.030;21.952;2023-05-09T05:29:31;99839.72;;;5.98;77.66
57847;BME280;43675;50.030;21.952;2023-05-09T05:31:58;99843.69;;;6.09;77.39
57847;BME280;43675;50.030;21.952;2023-05-09T05:34:24;99838.66;;;6.23;77.12
57847;BME280;43675;50.030;21.952;2023-05-09T05:36:51;99842.27;;;6.36;76.73
57847;BME280;43675;50.030;21.952;2023-05-09T05:39:17;99840.60;;;6.50;76.57
57847;BME280;43675;50.030;21.952;2023-05-09T05:41:44;99836.49;;;6.66;76.27
57847;BME280;43675;50.030;21.952;2023-05-09T05:44:10;99836.50;;;6.81;75.86
57847;BME280;43675;50.030;21.952;2023-05-09T05:46:37;99829.01;;;6.94;75.36
57847;BME280;43675;50.030;21.952;2023-05-09T05:49:03;99825.93;;;7.08;74.78
57847;BME280;43675;50.030;21.952;2023-05-09T05:51:30;99822.35;;;7.21;74.63
57847;BME280;43675;50.030;21.952;2023-05-09T05:53:56;99820.92;;;7.32;74.33
57847;BME280;43675;50.030;21.952;2023-05-09T05:56:23;99812.21;;;7.45;74.18
57847;BME280;43675;50.030;21.952;2023-05-09T05:58:49;99816.05;;;7.59;73.67
57847;BME280;43675;50.030;21.952;2023-05-09T06:01:16;99814.98;;;7.70;73.34
57847;BME280;43675;50.030;21.952;2023-05-09T06:03:42;99818.11;;;7.84;72.96
57847;BME280;43675;50.030;21.952;2023-05-09T06:06:09;99817.73;;;7.99;72.59
57847;BME280;43675;50.030;21.952;2023-05-09T06:08:36;99820.64;;;8.17;72.18
57847;BME280;43675;50.030;21.952;2023-05-09T06:11:02;99821.33;;;8.31;71.55
57847;BME280;43675;50.030;21.952;2023-05-09T06:13:29;99814.97;;;8.45;70.93
57847;BME280;43675;50.030;21.952;2023-05-09T06:15:56;99815.20;;;8.59;70.46
57847;BME280;43675;50.030;21.952;2023-05-09T06:18:22;99813.54;;;8.72;70.07
57847;BME280;43675;50.030;21.952;2023-05-09T06:20:49;99809.33;;;8.94;69.58
57847;BME280;43675;50.030;21.952;2023-05-09T06:23:15;99814.90;;;9.03;69.13
57847;BME280;43675;50.030;21.952;2023-05-09T06:25:42;99813.77;;;9.11;68.70
57847;BME280;43675;50.030;21.952;2023-05-09T06:28:08;99814.20;;;9.20;68.43
57847;BME280;43675;50.030;21.952;2023-05-09T06:30:35;99812.52;;;9.28;68.08
57847;BME280;43675;50.030;21.952;2023-05-09T06:33:01;99810.52;;;9.35;67.90
57847;BME280;43675;50.030;21.952;2023-05-09T06:35:28;99805.53;;;9.44;67.43
57847;BME280;43675;50.030;21.952;2023-05-09T06:37:54;99807.86;;;9.54;67.10
57847;BME280;43675;50.030;21.952;2023-05-09T06:40:21;99805.39;;;9.66;66.75
57847;BME280;43675;50.030;21.952;2023-05-09T06:42:47;99801.52;;;9.78;66.61
57847;BME280;43675;50.030;21.952;2023-05-09T06:45:14;99804.73;;;9.89;66.00
57847;BME280;43675;50.030;21.952;2023-05-09T06:47:40;99803.20;;;10.01;65.58
57847;BME280;43675;50.030;21.952;2023-05-09T06:50:07;99801.00;;;10.18;65.00
57847;BME280;43675;50.030;21.952;2023-05-09T06:52:34;99803.66;;;10.34;64.50
57847;BME280;43675;50.030;21.952;2023-05-09T06:55:01;99800.83;;;10.48;63.80
57847;BME280;43675;50.030;21.952;2023-05-09T06:57:28;99795.70;;;10.57;63.08
57847;BME280;43675;50.030;21.952;2023-05-09T06:59:55;99795.89;;;10.69;62.54
57847;BME280;43675;50.030;21.952;2023-05-09T07:02:21;99794.34;;;10.80;62.09
57847;BME280;43675;50.030;21.952;2023-05-09T07:04:47;99795.16;;;10.90;61.68
57847;BME280;43675;50.030;21.952;2023-05-09T07:07:14;99788.71;;;10.98;60.67
57847;BME280;43675;50.030;21.952;2023-05-09T07:09:41;99788.11;;;11.02;59.89
57847;BME280;43675;50.030;21.952;2023-05-09T07:12:07;99784.94;;;11.08;59.37
57847;BME280;43675;50.030;21.952;2023-05-09T07:14:34;99780.59;;;11.15;59.30
57847;BME280;43675;50.030;21.952;2023-05-09T07:17:00;99778.55;;;11.25;59.04
57847;BME280;43675;50.030;21.952;2023-05-09T07:19:27;99777.38;;;11.36;58.44
57847;BME280;43675;50.030;21.952;2023-05-09T07:21:53;99773.15;;;11.46;57.80
57847;BME280;43675;50.030;21.952;2023-05-09T07:24:20;99775.60;;;11.52;57.32
57847;BME280;43675;50.030;21.952;2023-05-09T07:26:46;99771.55;;;11.57;57.17
57847;BME280;43675;50.030;21.952;2023-05-09T07:29:13;99768.30;;;11.62;56.92
57847;BME280;43675;50.030;21.952;2023-05-09T07:31:40;99764.71;;;11.69;56.45
57847;BME280;43675;50.030;21.952;2023-05-09T07:34:06;99766.61;;;11.76;55.93
57847;BME280;43675;50.030;21.952;2023-05-09T07:36:33;99766.16;;;11.82;55.57
57847;BME280;43675;50.030;21.952;2023-05-09T07:38:59;99765.83;;;11.89;55.38
57847;BME280;43675;50.030;21.952;2023-05-09T07:41:26;99764.60;;;11.97;54.89
57847;BME280;43675;50.030;21.952;2023-05-09T07:43:52;99763.49;;;12.05;54.12
57847;BME280;43675;50.030;21.952;2023-05-09T07:46:19;99761.22;;;12.12;52.91
57847;BME280;43675;50.030;21.952;2023-05-09T07:48:45;99759.79;;;12.16;52.59
57847;BME280;43675;50.030;21.952;2023-05-09T07:51:12;99759.09;;;12.17;52.38
57847;BME280;43675;50.030;21.952;2023-05-09T07:53:38;99754.49;;;12.15;52.11
57847;BME280;43675;50.030;21.952;2023-05-09T07:56:05;99751.14;;;12.15;51.77
57847;BME280;43675;50.030;21.952;2023-05-09T07:58:31;99753.39;;;12.18;51.80
57847;BME280;43675;50.030;21.952;2023-05-09T08:00:58;99746.96;;;12.23;51.44
57847;BME280;43675;50.030;21.952;2023-05-09T08:03:25;99745.61;;;12.28;51.14
57847;BME280;43675;50.030;21.952;2023-05-09T08:05:52;99743.51;;;12.36;50.77
57847;BME280;43675;50.030;21.952;2023-05-09T08:08:19;99746.23;;;12.43;50.64
57847;BME280;43675;50.030;21.952;2023-05-09T08:10:45;99737.02;;;12.48;50.74
57847;BME280;43675;50.030;21.952;2023-05-09T08:13:12;99743.41;;;12.54;50.33
57847;BME280;43675;50.030;21.952;2023-05-09T08:15:38;99741.79;;;12.60;49.80
57847;BME280;43675;50.030;21.952;2023-05-09T08:18:05;99740.96;;;12.63;49.13
57847;BME280;43675;50.030;21.952;2023-05-09T08:20:31;99743.34;;;12.68;48.88
57847;BME280;43675;50.030;21.952;2023-05-09T08:22:58;99743.50;;;12.77;48.74
57847;BME280;43675;50.030;21.952;2023-05-09T08:25:25;99738.63;;;12.83;48.43
57847;BME280;43675;50.030;21.952;2023-05-09T08:27:51;99735.41;;;12.89;48.44
57847;BME280;43675;50.030;21.952;2023-05-09T08:30:18;99735.76;;;12.96;48.01
57847;BME280;43675;50.030;21.952;2023-05-09T08:32:44;99739.52;;;12.98;47.72
57847;BME280;43675;50.030;21.952;2023-05-09T08:35:11;99737.05;;;13.02;47.67
57847;BME280;43675;50.030;21.952;2023-05-09T08:37:38;99726.04;;;13.08;47.51
57847;BME280;43675;50.030;21.952;2023-05-09T08:40:05;99729.77;;;13.14;47.07
57847;BME280;43675;50.030;21.952;2023-05-09T08:42:32;99732.91;;;13.18;47.04
57847;BME280;43675;50.030;21.952;2023-05-09T08:45:11;99724.80;;;13.18;46.96
57847;BME280;43675;50.030;21.952;2023-05-09T08:47:38;99724.95;;;13.14;46.92
57847;BME280;43675;50.030;21.952;2023-05-09T08:50:06;99721.51;;;13.12;46.55
57847;BME280;43675;50.030;21.952;2023-05-09T08:52:34;99718.42;;;13.08;46.58
57847;BME280;43675;50.030;21.952;2023-05-09T08:55:01;99715.91;;;13.04;46.53
57847;BME280;43675;50.030;21.952;2023-05-09T08:57:28;99709.37;;;13.06;46.43
57847;BME280;43675;50.030;21.952;2023-05-09T08:59:55;99712.23;;;13.14;46.40
57847;BME280;43675;50.030;21.952;2023-05-09T09:02:22;99710.34;;;13.28;46.36
57847;BME280;43675;50.030;21.952;2023-05-09T09:04:49;99716.19;;;13.42;46.18
57847;BME280;43675;50.030;21.952;2023-05-09T09:07:16;99714.07;;;13.55;45.89
57847;BME280;43675;50.030;21.952;2023-05-09T09:09:45;99703.34;;;13.67;45.81
57847;BME280;43675;50.030;21.952;2023-05-09T09:12:13;99707.68;;;13.82;45.97
57847;BME280;43675;50.030;21.952;2023-05-09T09:14:44;99706.23;;;13.97;45.79
57847;BME280;43675;50.030;21.952;2023-05-09T09:17:14;99706.65;;;14.08;45.41
57847;BME280;43675;50.030;21.952;2023-05-09T09:19:43;99706.30;;;14.09;44.81
57847;BME280;43675;50.030;21.952;2023-05-09T09:22:15;99701.23;;;14.10;44.63
57847;BME280;43675;50.030;21.952;2023-05-09T09:24:43;99707.06;;;14.12;44.25
57847;BME280;43675;50.030;21.952;2023-05-09T09:27:10;99712.02;;;14.14;44.09
57847;BME280;43675;50.030;21.952;2023-05-09T09:29:36;99712.18;;;14.23;44.02
57847;BME280;43675;50.030;21.952;2023-05-09T09:32:04;99713.58;;;14.39;43.74
57847;BME280;43675;50.030;21.952;2023-05-09T09:34:31;99707.81;;;14.63;43.83
57847;BME280;43675;50.030;21.952;2023-05-09T09:36:58;99704.27;;;14.88;43.67
57847;BME280;43675;50.030;21.952;2023-05-09T09:39:24;99708.85;;;15.00;43.06
57847;BME280;43675;50.030;21.952;2023-05-09T09:41:51;99702.23;;;15.02;42.44
57847;BME280;43675;50.030;21.952;2023-05-09T09:44:19;99701.65;;;15.14;42.54
57847;BME280;43675;50.030;21.952;2023-05-09T09:46:50;99700.16;;;15.34;42.31
57847;BME280;43675;50.030;21.952;2023-05-09T09:49:19;99693.16;;;15.58;42.20
57847;BME280;43675;50.030;21.952;2023-05-09T09:51:55;99690.72;;;15.78;41.97
57847;BME280;43675;50.030;21.952;2023-05-09T09:54:25;99688.12;;;15.92;41.67
57847;BME280;43675;50.030;21.952;2023-05-09T09:56:52;99687.42;;;15.98;41.35
57847;BME280;43675;50.030;21.952;2023-05-09T09:59:21;99680.67;;;15.99;41.39
57847;BME280;43675;50.030;21.952;2023-05-09T10:04:28;99679.61;;;16.22;40.47
57847;BME280;43675;50.030;21.952;2023-05-09T10:06:56;99672.80;;;16.41;40.08
57847;BME280;43675;50.030;21.952;2023-05-09T10:09:24;99678.27;;;16.65;39.51
57847;BME280;43675;50.030;21.952;2023-05-09T10:11:53;99675.66;;;16.87;39.12
57847;BME280;43675;50.030;21.952;2023-05-09T10:14:22;99671.41;;;17.05;38.65
57847;BME280;43675;50.030;21.952;2023-05-09T10:16:53;99663.52;;;17.23;38.40
57847;BME280;43675;50.030;21.952;2023-05-09T10:19:21;99665.95;;;17.36;38.19
57847;BME280;43675;50.030;21.952;2023-05-09T10:21:53;99666.95;;;17.36;37.64
57847;BME280;43675;50.030;21.952;2023-05-09T10:27:09;99659.98;;;17.36;37.65
57847;BME280;43675;50.030;21.952;2023-05-09T10:29:50;99656.55;;;17.27;37.56
57847;BME280;43675;50.030;21.952;2023-05-09T10:35:05;99647.88;;;17.14;37.12
57847;BME280;43675;50.030;21.952;2023-05-09T10:37:36;99649.18;;;16.97;36.59
57847;BME280;43675;50.030;21.952;2023-05-09T10:40:03;99654.52;;;16.81;36.53
57847;BME280;43675;50.030;21.952;2023-05-09T10:42:30;99653.55;;;16.69;36.32
57847;BME280;43675;50.030;21.952;2023-05-09T10:44:57;99647.65;;;16.60;36.43
57847;BME280;43675;50.030;21.952;2023-05-09T10:47:28;99648.05;;;16.58;36.59
57847;BME280;43675;50.030;21.952;2023-05-09T10:49:55;99647.71;;;16.58;36.11
57847;BME280;43675;50.030;21.952;2023-05-09T10:52:21;99649.21;;;16.64;36.23
57847;BME280;43675;50.030;21.952;2023-05-09T10:55:01;99640.44;;;16.69;36.29
57847;BME280;43675;50.030;21.952;2023-05-09T10:57:30;99640.92;;;16.72;36.27
57847;BME280;43675;50.030;21.952;2023-05-09T10:59:57;99636.11;;;16.78;36.02
57847;BME280;43675;50.030;21.952;2023-05-09T11:02:24;99637.05;;;16.91;35.96
57847;BME280;43675;50.030;21.952;2023-05-09T11:05:18;99638.14;;;17.04;35.64
57847;BME280;43675;50.030;21.952;2023-05-09T11:07:44;99636.08;;;17.23;35.30
57847;BME280;43675;50.030;21.952;2023-05-09T11:10:17;99636.37;;;17.47;34.99
57847;BME280;43675;50.030;21.952;2023-05-09T11:12:57;99627.48;;;17.65;34.61
57847;BME280;43675;50.030;21.952;2023-05-09T11:15:25;99630.83;;;17.84;34.59
57847;BME280;43675;50.030;21.952;2023-05-09T11:18:06;99628.77;;;17.93;33.99
57847;BME280;43675;50.030;21.952;2023-05-09T11:20:35;99624.69;;;17.99;34.14
57847;BME280;43675;50.030;21.952;2023-05-09T11:23:08;99609.23;;;18.19;34.12
57847;BME280;43675;50.030;21.952;2023-05-09T11:25:37;99608.13;;;18.41;33.83
57847;BME280;43675;50.030;21.952;2023-05-09T11:28:04;99604.42;;;18.60;33.49
57847;BME280;43675;50.030;21.952;2023-05-09T11:30:38;99600.45;;;18.62;32.95
57847;BME280;43675;50.030;21.952;2023-05-09T11:33:05;99602.70;;;18.64;33.06
57847;BME280;43675;50.030;21.952;2023-05-09T11:35:33;99603.06;;;18.69;33.02
57847;BME280;43675;50.030;21.952;2023-05-09T11:38:04;99589.71;;;18.58;32.69
57847;BME280;43675;50.030;21.952;2023-05-09T11:40:33;99597.49;;;18.38;32.49
57847;BME280;43675;50.030;21.952;2023-05-09T11:43:00;99600.27;;;18.08;32.37
57847;BME280;43675;50.030;21.952;2023-05-09T11:45:29;99599.38;;;17.86;32.42
57847;BME280;43675;50.030;21.952;2023-05-09T11:47:56;99593.05;;;17.72;32.82
57847;BME280;43675;50.030;21.952;2023-05-09T11:50:24;99591.71;;;17.61;32.87
57847;BME280;43675;50.030;21.952;2023-05-09T11:52:51;99590.35;;;17.45;32.59
57847;BME280;43675;50.030;21.952;2023-05-09T11:55:19;99585.80;;;17.34;32.68
57847;BME280;43675;50.030;21.952;2023-05-09T11:57:48;99585.62;;;17.30;33.00
57847;BME280;43675;50.030;21.952;2023-05-09T12:00:17;99581.96;;;17.27;32.79
57847;BME280;43675;50.030;21.952;2023-05-09T12:02:44;99579.98;;;17.28;33.03
57847;BME280;43675;50.030;21.952;2023-05-09T12:05:13;99578.11;;;17.34;32.91
57847;BME280;43675;50.030;21.952;2023-05-09T12:07:40;99569.96;;;17.43;32.80
57847;BME280;43675;50.030;21.952;2023-05-09T12:10:08;99566.03;;;17.56;32.57
57847;BME280;43675;50.030;21.952;2023-05-09T12:12:37;99570.44;;;17.57;32.38
57847;BME280;43675;50.030;21.952;2023-05-09T12:15:07;99572.20;;;17.41;32.27
57847;BME280;43675;50.030;21.952;2023-05-09T12:17:34;99572.31;;;17.23;32.07
57847;BME280;43675;50.030;21.952;2023-05-09T12:20:02;99565.66;;;17.14;32.22
57847;BME280;43675;50.030;21.952;2023-05-09T12:22:28;99559.52;;;17.16;32.20
57847;BME280;43675;50.030;21.952;2023-05-09T12:24:55;99554.23;;;17.17;32.01
57847;BME280;43675;50.030;21.952;2023-05-09T12:27:23;99552.54;;;17.18;31.58
57847;BME280;43675;50.030;21.952;2023-05-09T12:29:50;99552.09;;;17.10;31.64
57847;BME280;43675;50.030;21.952;2023-05-09T12:32:17;99553.99;;;16.94;31.68
57847;BME280;43675;50.030;21.952;2023-05-09T12:34:44;99545.17;;;16.82;31.87
57847;BME280;43675;50.030;21.952;2023-05-09T12:37:17;99547.46;;;16.73;32.01
57847;BME280;43675;50.030;21.952;2023-05-09T12:40:02;99537.80;;;16.62;32.18
57847;BME280;43675;50.030;21.952;2023-05-09T12:42:30;99534.30;;;16.53;32.45
57847;BME280;43675;50.030;21.952;2023-05-09T12:44:57;99537.17;;;16.51;32.36
57847;BME280;43675;50.030;21.952;2023-05-09T12:47:28;99528.03;;;16.50;32.20
57847;BME280;43675;50.030;21.952;2023-05-09T12:50:01;99524.48;;;16.55;32.41
57847;BME280;43675;50.030;21.952;2023-05-09T12:52:38;99532.05;;;16.62;32.47
57847;BME280;43675;50.030;21.952;2023-05-09T12:55:07;99531.16;;;16.70;32.77
57847;BME280;43675;50.030;21.952;2023-05-09T12:57:34;99522.73;;;16.78;32.32
57847;BME280;43675;50.030;21.952;2023-05-09T13:00:03;99518.64;;;16.85;32.18
57847;BME280;43675;50.030;21.952;2023-05-09T13:02:37;99513.66;;;16.94;32.18
57847;BME280;43675;50.030;21.952;2023-05-09T13:05:17;99508.75;;;17.05;31.99
57847;BME280;43675;50.030;21.952;2023-05-09T13:07:46;99510.09;;;17.11;31.78
57847;BME280;43675;50.030;21.952;2023-05-09T13:10:26;99509.51;;;17.21;31.68
57847;BME280;43675;50.030;21.952;2023-05-09T13:12:53;99494.73;;;17.27;31.47
57847;BME280;43675;50.030;21.952;2023-05-09T13:15:21;99495.06;;;17.21;31.25
57847;BME280;43675;50.030;21.952;2023-05-09T13:17:49;99496.05;;;17.07;31.18
57847;BME280;43675;50.030;21.952;2023-05-09T13:20:17;99491.86;;;16.90;31.12
57847;BME280;43675;50.030;21.952;2023-05-09T13:22:44;99483.73;;;16.68;30.89